Time;durP1;ratioP1;P1;durP2;ratioP2;P2;SDS_P1;SDS_P2;PMS_P1;PMS_P2;Temp;Humidity;BMP_temperature;BMP_pressure;BME280_temperature;BME280_humidity;BME280_pressure;Samples;Min_cycle;Max_cycle;Signal;HPM_P1;HPM_P2
2024/01/12 00:03:01;;;;;;;6.72;5.40;;;;;;;3.23;68.23;101599.00;10406475;28;20052;-64
2024/01/12 00:08:03;;;;;;;6.70;6.00;;;;;;;3.25;68.38;101601.59;10418125;28;20112;-64
2024/01/12 00:13:07;;;;;;;5.93;5.43;;;;;;;3.26;68.25;101598.03;10408539;28;20052;-64
2024/01/12 00:18:09;;;;;;;6.68;5.65;;;;;;;3.31;68.09;101606.69;10404172;28;20124;-63
2024/01/12 00:23:10;;;;;;;6.47;5.45;;;;;;;3.21;68.59;101592.06;10386249;28;20053;-63
2024/01/12 00:28:12;;;;;;;5.85;5.25;;;;;;;3.28;68.79;101609.41;10405315;28;20063;-64
2024/01/12 00:33:16;;;;;;;6.05;5.20;;;;;;;3.36;68.76;101617.94;10387061;28;20545;-65
2024/01/12 00:38:17;;;;;;;6.00;4.90;;;;;;;3.15;68.82;101578.19;10420582;28;20110;-63
2024/01/12 00:43:19;;;;;;;5.22;4.63;;;;;;;3.40;69.03;101609.03;10404851;28;20706;-64
2024/01/12 00:48:20;;;;;;;6.45;5.38;;;;;;;3.41;68.93;101609.91;10399407;28;20064;-64
2024/01/12 00:53:23;;;;;;;7.70;5.90;;;;;;;3.34;69.12;101614.50;10404384;28;20194;-64
2024/01/12 00:58:24;;;;;;;5.88;5.28;;;;;;;3.35;69.01;101622.34;10406415;28;20059;-63
2024/01/12 01:03:25;;;;;;;6.03;5.35;;;;;;;3.40;69.42;101618.72;10383329;28;20574;-64
2024/01/12 01:08:27;;;;;;;5.55;5.03;;;;;;;3.39;69.56;101628.38;10399679;28;20051;-64
2024/01/12 01:13:28;;;;;;;6.43;5.10;;;;;;;3.36;69.96;101617.94;10413270;28;20059;-64
2024/01/12 01:18:30;;;;;;;7.15;5.50;;;;;;;3.43;69.75;101630.00;10400837;28;20079;-65
2024/01/12 01:23:37;;;;;;;6.00;5.18;;;;;;;3.44;69.75;101620.34;10414842;28;20050;-64
2024/01/12 01:28:38;;;;;;;5.88;5.28;;;;;;;3.43;69.90;101630.00;10400241;28;20061;-63
2024/01/12 01:33:40;;;;;;;7.85;5.88;;;;;;;3.45;69.96;101638.75;10398770;28;20660;-64
2024/01/12 01:38:42;;;;;;;6.20;5.10;;;;;;;3.46;70.09;101636.97;10397874;28;20048;-63
2024/01/12 01:43:43;;;;;;;6.35;5.60;;;;;;;3.48;70.11;101633.41;10370549;28;20068;-63
2024/01/12 01:48:45;;;;;;;7.38;5.72;;;;;;;3.45;69.91;101632.59;10397745;28;20140;-63
2024/01/12 01:53:47;;;;;;;6.72;5.88;;;;;;;3.47;70.40;101626.41;10401283;28;21028;-64
2024/01/12 01:58:49;;;;;;;6.63;5.30;;;;;;;3.48;70.40;101629.88;10379259;28;20144;-64
2024/01/12 02:03:51;;;;;;;6.20;5.07;;;;;;;3.49;70.65;101627.19;10402917;28;20064;-63
2024/01/12 02:08:53;;;;;;;6.80;6.00;;;;;;;3.53;70.30;101636.75;10402233;28;20330;-64
2024/01/12 02:13:55;;;;;;;6.32;5.47;;;;;;;3.47;70.25;101615.88;10401242;28;20945;-64
2024/01/12 02:18:57;;;;;;;6.28;5.40;;;;;;;3.57;70.17;101618.22;10399370;28;20122;-64
2024/01/12 02:23:59;;;;;;;6.88;5.88;;;;;;;3.63;70.10;101632.06;10392433;28;20465;-65
2024/01/12 02:29:02;;;;;;;7.75;6.30;;;;;;;3.63;70.30;101632.06;10382047;28;20529;-64
2024/01/12 02:34:04;;;;;;;6.75;5.47;;;;;;;3.61;70.61;101623.34;10400805;28;20940;-64
2024/01/12 02:39:06;;;;;;;7.05;5.78;;;;;;;3.59;70.82;101616.41;10401446;28;20124;-64
2024/01/12 02:44:08;;;;;;;7.05;6.13;;;;;;;3.53;71.11;101620.09;10403375;28;20049;-65
2024/01/12 02:49:09;;;;;;;7.10;5.93;;;;;;;3.53;70.96;101614.84;10401303;28;20076;-63
2024/01/12 02:54:11;;;;;;;6.90;6.18;;;;;;;3.50;71.19;101605.25;10415439;28;20044;-64
2024/01/12 02:59:12;;;;;;;7.13;5.88;;;;;;;3.61;70.75;101617.22;10399613;28;20125;-65
2024/01/12 03:04:14;;;;;;;8.45;6.53;;;;;;;3.59;71.07;101617.28;10406463;28;20041;-64
2024/01/12 03:09:15;;;;;;;6.78;5.90;;;;;;;3.52;70.89;101621.00;10415300;28;20053;-64
2024/01/12 03:14:17;;;;;;;6.63;5.75;;;;;;;3.57;71.13;101620.84;10407863;28;20054;-65
2024/01/12 03:19:19;;;;;;;7.78;6.18;;;;;;;3.59;71.26;101619.91;10413673;28;20057;-63
2024/01/12 03:24:20;;;;;;;6.03;5.03;;;;;;;3.59;71.37;101613.75;10409088;28;20611;-64
2024/01/12 03:29:22;;;;;;;5.82;5.25;;;;;;;3.43;71.20;101598.44;10415127;28;20130;-64
2024/01/12 03:34:23;;;;;;;6.30;5.70;;;;;;;3.60;71.33;101615.50;10407851;28;20049;-65
2024/01/12 03:39:25;;;;;;;7.22;5.95;;;;;;;3.57;71.17;101611.19;10402562;28;20045;-64
2024/01/12 03:44:26;;;;;;;6.47;5.63;;;;;;;3.53;71.28;101607.78;10407966;28;20478;-63
2024/01/12 03:49:28;;;;;;;6.90;5.85;;;;;;;3.53;71.82;101606.94;10392661;28;20048;-65
2024/01/12 03:54:30;;;;;;;7.25;5.35;;;;;;;3.58;71.48;101618.19;10408463;28;20844;-64
2024/01/12 03:59:31;;;;;;;6.90;4.88;;;;;;;3.61;71.57;101617.22;10408272;28;20132;-65
2024/01/12 04:04:33;;;;;;;5.93;5.35;;;;;;;3.60;71.42;101618.13;10406848;28;20045;-64
2024/01/12 04:09:34;;;;;;;5.90;5.30;;;;;;;3.60;71.35;101621.63;10405780;28;20040;-63
2024/01/12 04:14:36;;;;;;;6.30;5.53;;;;;;;3.62;71.53;101626.84;10406707;28;20462;-66
2024/01/12 04:19:37;;;;;;;6.10;5.50;;;;;;;3.56;71.50;101621.75;10387178;28;20652;-64
2024/01/12 04:24:39;;;;;;;6.55;5.68;;;;;;;3.58;71.78;101623.44;10391793;28;20055;-63
2024/01/12 04:29:40;;;;;;;5.32;4.68;;;;;;;3.56;71.92;101625.28;10404285;28;20578;-64
2024/01/12 04:34:42;;;;;;;6.55;5.65;;;;;;;3.54;71.78;101614.78;10402319;28;20097;-64
2024/01/12 04:39:43;;;;;;;8.20;5.82;;;;;;;3.45;72.16;101599.25;10389792;28;20053;-65
2024/01/12 04:44:45;;;;;;;7.38;6.25;;;;;;;3.61;71.89;101622.50;10401507;28;20056;-64
2024/01/12 04:49:48;;;;;;;8.05;5.88;;;;;;;3.59;72.25;101632.19;10415330;28;20059;-63
2024/01/12 04:54:49;;;;;;;7.13;6.38;;;;;;;3.56;72.50;101632.28;10378141;28;21360;-63
2024/01/12 04:59:51;;;;;;;6.97;5.80;;;;;;;3.46;72.85;101629.94;10405350;28;20121;-64
2024/01/12 05:04:53;;;;;;;7.18;6.22;;;;;;;3.51;72.49;101620.16;10402130;28;20073;-64
2024/01/12 05:09:54;;;;;;;6.95;6.25;;;;;;;3.48;72.82;101630.75;10406076;28;20059;-64
2024/01/12 05:14:56;;;;;;;6.82;6.10;;;;;;;3.49;72.92;101616.66;10407463;28;20681;-64
2024/01/12 05:20:05;;;;;;;7.15;6.40;;;;;;;3.59;72.60;101630.44;10404640;28;20525;-64
2024/01/12 05:25:06;;;;;;;7.22;6.50;;;;;;;3.62;72.30;101613.66;10400751;28;20052;-64
2024/01/12 05:30:08;;;;;;;6.47;5.78;;;;;;;3.63;72.26;101607.50;10398142;28;20061;-64
2024/01/12 05:35:10;;;;;;;7.45;6.65;;;;;;;3.48;73.17;101600.91;10401769;28;20048;-64
2024/01/12 05:40:15;;;;;;;8.13;7.30;;;;;;;3.57;72.85;101589.25;10400002;28;20128;-64
2024/01/12 05:45:17;;;;;;;7.60;6.57;;;;;;;3.55;73.04;101602.47;10401106;28;20752;-64
2024/01/12 05:50:18;;;;;;;9.13;7.22;;;;;;;3.56;73.25;101592.78;10412416;28;20045;-64
2024/01/12 05:55:20;;;;;;;7.22;6.53;;;;;;;3.42;72.94;101575.63;10399615;28;20056;-64
2024/01/12 06:00:22;;;;;;;7.50;6.80;;;;;;;3.49;73.12;101587.72;10411296;28;20530;-64
2024/01/12 06:05:23;;;;;;;8.48;7.57;;;;;;;3.50;72.98;101578.06;10389596;28;20081;-64
2024/01/12 06:10:25;;;;;;;8.20;7.40;;;;;;;3.57;73.43;101603.28;10399043;28;20052;-65
2024/01/12 06:15:29;;;;;;;7.63;6.70;;;;;;;3.62;72.98;101613.66;10401316;28;20052;-65
2024/01/12 06:20:31;;;;;;;8.23;7.43;;;;;;;3.63;73.40;101612.78;10401608;28;20650;-64
2024/01/12 06:25:38;;;;;;;7.55;6.75;;;;;;;3.62;73.47;101629.47;10379408;28;20052;-64
2024/01/12 06:30:40;;;;;;;7.95;7.15;;;;;;;3.57;73.61;101605.91;10404027;28;20053;-65
2024/01/12 06:35:44;;;;;;;8.07;7.28;;;;;;;3.49;74.14;101629.84;10402959;28;20072;-64
2024/01/12 06:40:46;;;;;;;7.43;6.47;;;;;;;3.57;73.73;101632.25;10393608;28;20171;-63
2024/01/12 06:45:47;;;;;;;8.45;7.07;;;;;;;3.58;73.80;101628.72;10417891;28;20064;-65
2024/01/12 06:50:48;;;;;;;8.75;7.43;;;;;;;3.59;73.75;101625.19;10393151;28;20045;-64
2024/01/12 06:55:50;;;;;;;8.32;7.30;;;;;;;3.62;73.80;101634.75;10387411;28;20135;-65
2024/01/12 07:00:52;;;;;;;8.57;7.40;;;;;;;3.60;73.76;101653.22;10412194;28;20051;-64
2024/01/12 07:05:54;;;;;;;7.93;7.13;;;;;;;3.54;74.33;101654.28;10406786;28;20045;-65
2024/01/12 07:10:57;;;;;;;7.57;6.32;;;;;;;3.50;74.13;101634.19;10392026;28;20053;-63
2024/01/12 07:15:59;;;;;;;7.75;6.95;;;;;;;3.62;74.02;101647.91;10372112;28;20172;-64
2024/01/12 07:21:03;;;;;;;8.27;7.18;;;;;;;3.49;74.51;101656.16;10401637;28;20041;-64
2024/01/12 07:26:05;;;;;;;;;;;;;;;3.53;74.59;101665.72;10406727;28;20048;-66
2024/01/12 07:31:07;;;;;;;7.07;6.38;;;;;;;3.53;74.68;101673.59;10388008;28;19929;-65
2024/01/12 07:36:08;;;;;;;7.38;6.68;;;;;;;3.51;74.55;101670.16;10407736;28;20060;-64
2024/01/12 07:41:10;;;;;;;8.25;6.90;;;;;;;3.52;74.30;101669.25;10399491;28;20136;-65
2024/01/12 07:46:17;;;;;;;8.25;7.32;;;;;;;3.53;74.45;101663.06;10381976;28;20144;-65
2024/01/12 07:51:20;;;;;;;7.65;6.82;;;;;;;3.53;74.44;101665.72;10407000;28;20060;-64
2024/01/12 07:56:22;;;;;;;7.93;7.00;;;;;;;3.53;74.51;101672.75;10387519;28;20745;-66
2024/01/12 08:01:24;;;;;;;7.88;7.10;;;;;;;3.52;74.57;101656.06;10407048;28;20080;-64
2024/01/12 08:06:26;;;;;;;7.20;6.50;;;;;;;3.48;74.85;101670.25;10408921;28;20736;-65
2024/01/12 08:11:28;;;;;;;9.05;8.15;;;;;;;3.32;74.99;101663.69;10403103;28;20118;-66
2024/01/12 08:16:41;;;;;;;8.70;7.03;;;;;;;3.36;75.23;101658.31;10420493;28;20052;-65
2024/01/12 08:21:43;;;;;;;8.02;7.20;;;;;;;3.51;74.98;101669.28;10403627;28;20049;-64
2024/01/12 08:26:55;;;;;;;8.30;6.40;;;;;;;3.49;74.97;101658.78;10411105;28;20045;-64
2024/01/12 08:31:58;;;;;;;7.75;6.97;;;;;;;3.51;74.81;101671.91;10410801;28;20135;-64
2024/01/12 08:37:00;;;;;;;7.68;6.70;;;;;;;3.49;74.32;101668.47;10408455;28;21402;-65
2024/01/12 08:42:02;;;;;;;8.55;7.65;;;;;;;3.56;74.51;101677.06;10404218;28;20461;-62
2024/01/12 08:47:04;;;;;;;9.00;7.95;;;;;;;3.46;75.08;101685.22;10405075;28;20764;-66
2024/01/12 08:52:06;;;;;;;8.05;6.97;;;;;;;3.49;75.21;101689.53;10406203;28;20115;-64
2024/01/12 08:57:07;;;;;;;8.35;7.40;;;;;;;3.52;74.90;101692.94;10394797;28;20561;-65
2024/01/12 09:02:12;;;;;;;10.20;8.07;;;;;;;3.50;74.85;101689.50;10406355;28;20723;-64
2024/01/12 09:07:13;;;;;;;9.77;7.90;;;;;;;3.47;75.10;101694.84;10406614;28;20658;-64
2024/01/12 09:12:15;;;;;;;9.23;8.02;;;;;;;3.42;75.30;101680.94;10399329;28;20634;-63
2024/01/12 09:17:17;;;;;;;8.57;7.35;;;;;;;3.47;75.17;101686.94;10398847;28;20125;-65
2024/01/12 09:22:18;;;;;;;8.88;7.07;;;;;;;3.37;75.54;101693.38;10394076;28;20502;-64
2024/01/12 09:27:20;;;;;;;9.00;8.10;;;;;;;3.42;76.13;101707.25;10402864;28;20454;-65
2024/01/12 09:32:22;;;;;;;9.30;7.22;;;;;;;3.45;75.25;101696.66;10407135;28;20471;-64
2024/01/12 09:37:24;;;;;;;9.13;7.35;;;;;;;3.49;75.37;101700.91;10402524;28;20083;-65
2024/01/12 09:42:31;;;;;;;8.25;7.45;;;;;;;3.43;75.47;101697.59;10405415;28;20049;-65
2024/01/12 09:47:35;;;;;;;8.15;7.22;;;;;;;3.49;75.31;101698.28;10403495;28;20071;-64
2024/01/12 09:52:37;;;;;;;9.23;8.27;;;;;;;3.56;75.21;101692.84;10401800;28;20236;-68
2024/01/12 09:57:39;;;;;;;8.30;7.15;;;;;;;3.54;75.06;101690.25;10404013;28;20679;-66
2024/01/12 10:02:40;;;;;;;9.68;8.68;;;;;;;3.48;75.69;101690.44;10395021;28;20044;-66
2024/01/12 10:07:42;;;;;;;9.00;7.72;;;;;;;3.53;75.26;101705.22;10401827;28;20055;-65
2024/01/12 10:12:50;;;;;;;10.30;8.98;;;;;;;3.53;75.18;101710.47;10404867;28;20565;-63
2024/01/12 10:17:54;;;;;;;10.02;8.95;;;;;;;3.56;75.33;101706.00;10398510;28;20052;-67
2024/01/12 10:22:57;;;;;;;9.13;7.55;;;;;;;3.61;75.21;101698.88;10412798;28;20064;-64
2024/01/12 10:27:58;;;;;;;8.68;7.65;;;;;;;3.63;74.53;101692.63;10410787;28;20139;-65
2024/01/12 10:33:01;;;;;;;8.75;7.63;;;;;;;3.60;74.66;101700.63;10408969;28;20096;-64
2024/01/12 10:38:08;;;;;;;9.50;8.40;;;;;;;3.61;74.67;101701.50;10403195;28;20068;-65
2024/01/12 10:43:16;;;;;;;10.65;8.57;;;;;;;3.66;74.92;101687.31;10395681;28;20507;-65
2024/01/12 10:48:22;;;;;;;11.07;8.27;;;;;;;3.65;74.56;101676.81;10407905;28;20053;-65
2024/01/12 10:53:31;;;;;;;9.60;8.60;;;;;;;3.65;75.00;101671.53;10424199;28;20052;-66
2024/01/12 10:58:34;;;;;;;9.45;7.95;;;;;;;3.54;75.36;101670.06;10402133;28;20057;-64
2024/01/12 11:03:36;;;;;;;10.13;9.13;;;;;;;3.68;75.02;101666.19;10408478;28;20052;-64
2024/01/12 11:08:38;;;;;;;8.75;7.85;;;;;;;3.71;74.47;101661.69;10429255;28;20079;-65
2024/01/12 11:13:40;;;;;;;8.77;7.88;;;;;;;3.74;74.17;101655.47;10388258;28;20049;-67
2024/01/12 11:18:41;;;;;;;8.38;7.53;;;;;;;3.76;73.95;101658.91;10406318;28;20119;-64
2024/01/12 11:23:43;;;;;;;8.85;7.53;;;;;;;3.82;73.87;101666.63;10407234;28;20065;-65
2024/01/12 11:28:47;;;;;;;8.98;8.02;;;;;;;3.78;73.79;101656.22;10406465;28;20163;-65
2024/01/12 11:33:58;;;;;;;9.27;8.38;;;;;;;3.84;73.68;101654.28;10405870;28;20049;-64
2024/01/12 11:39:00;;;;;;;11.02;7.57;;;;;;;3.84;73.30;101651.66;10404222;28;20575;-65
2024/01/12 11:44:02;;;;;;;9.07;8.07;;;;;;;3.82;73.46;101644.69;10405117;28;20513;-64
2024/01/12 11:49:04;;;;;;;8.80;7.70;;;;;;;3.81;72.94;101638.56;10406823;28;20033;-63
2024/01/12 11:54:06;;;;;;;8.50;7.38;;;;;;;3.62;72.54;101635.63;10412971;28;20759;-63
2024/01/12 11:59:08;;;;;;;9.35;8.23;;;;;;;3.40;73.89;101629.25;10409183;28;20142;-66
2024/01/12 12:04:09;;;;;;;8.27;6.75;;;;;;;3.59;73.26;101609.38;10398094;28;20103;-63
2024/01/12 12:09:11;;;;;;;8.52;7.13;;;;;;;3.68;72.86;101600.34;10400600;28;20045;-65
2024/01/12 12:14:12;;;;;;;8.60;7.00;;;;;;;3.67;72.35;101599.47;10419170;28;20146;-64
2024/01/12 12:19:14;;;;;;;7.88;6.88;;;;;;;3.65;73.00;101592.53;10409831;28;20064;-64
2024/01/12 12:24:16;;;;;;;8.98;6.57;;;;;;;3.70;72.41;101574.81;10405064;28;20159;-63
2024/01/12 12:29:19;;;;;;;7.80;6.80;;;;;;;3.39;73.29;101591.53;10409118;28;20457;-66
2024/01/12 12:34:21;;;;;;;6.25;5.65;;;;;;;3.44;72.92;101581.72;10404309;28;20412;-63
2024/01/12 12:39:23;;;;;;;7.18;6.18;;;;;;;3.44;73.53;101581.72;10401875;28;20071;-64
2024/01/12 12:44:25;;;;;;;7.43;6.38;;;;;;;3.18;74.29;101572.81;10402230;28;20061;-64
2024/01/12 12:49:36;;;;;;;7.40;6.55;;;;;;;2.88;75.43;101568.41;10388226;28;20467;-65
2024/01/12 12:54:38;;;;;;;7.18;6.40;;;;;;;3.32;74.32;101571.56;10403131;28;20276;-65
2024/01/12 12:59:39;;;;;;;7.55;6.43;;;;;;;3.50;72.44;101571.00;10401759;28;20048;-65
2024/01/12 13:04:41;;;;;;;7.90;6.82;;;;;;;3.60;71.48;101568.09;10406556;28;20710;-64
2024/01/12 13:09:43;;;;;;;6.43;5.47;;;;;;;3.63;70.35;101563.59;10403041;28;20140;-65
2024/01/12 13:14:44;;;;;;;6.63;5.93;;;;;;;3.61;70.05;101559.31;10404848;28;20052;-63
2024/01/12 13:19:46;;;;;;;7.57;6.40;;;;;;;3.67;69.95;101553.84;10403755;28;20042;-64
2024/01/12 13:24:48;;;;;;;7.60;5.43;;;;;;;3.71;69.44;101558.13;10389237;28;20056;-65
2024/01/12 13:29:52;;;;;;;6.53;5.63;;;;;;;3.72;69.86;101544.00;10402768;28;20100;-63
2024/01/12 13:34:54;;;;;;;5.85;5.03;;;;;;;3.63;69.08;101531.13;10403642;28;20131;-63
2024/01/12 13:39:57;;;;;;;5.63;5.03;;;;;;;3.71;68.79;101544.94;10400711;28;20063;-64
2024/01/12 13:45:00;;;;;;;6.05;4.93;;;;;;;3.81;68.89;101538.44;10397511;28;20129;-64
2024/01/12 13:50:02;;;;;;;6.03;5.40;;;;;;;3.75;68.21;101528.13;10417650;28;20049;-64
2024/01/12 13:55:05;;;;;;;6.50;5.70;;;;;;;3.60;68.48;101528.59;10404716;28;20060;-64
2024/01/12 14:00:07;;;;;;;6.57;5.30;;;;;;;3.69;69.02;101520.41;10387457;28;20053;-64
2024/01/12 14:05:11;;;;;;;6.85;5.30;;;;;;;3.77;68.47;101514.91;10391526;28;20052;-65
2024/01/12 14:10:18;;;;;;;6.72;5.88;;;;;;;3.78;67.82;101517.47;10409644;28;20084;-64
2024/01/12 14:15:21;;;;;;;6.18;5.57;;;;;;;3.74;67.98;101512.38;10398236;28;20066;-64
2024/01/12 14:20:23;;;;;;;6.00;5.13;;;;;;;3.72;67.78;101510.66;10409606;28;20069;-64
2024/01/12 14:25:24;;;;;;;7.28;6.57;;;;;;;3.71;68.15;101508.06;10394001;28;20048;-70
2024/01/12 14:30:27;;;;;;;6.60;5.88;;;;;;;3.78;67.70;101530.66;10404329;28;20073;-67
2024/01/12 14:35:29;;;;;;;7.05;6.07;;;;;;;3.74;67.95;101529.03;10390557;28;20682;-67
2024/01/12 14:40:30;;;;;;;7.07;6.38;;;;;;;3.81;67.57;101541.09;10402002;28;20041;-66
2024/01/12 14:45:32;;;;;;;6.97;6.18;;;;;;;3.79;67.06;101535.00;10403411;28;20491;-63
2024/01/12 14:50:34;;;;;;;7.32;5.85;;;;;;;3.72;67.28;101536.13;10398547;28;20054;-63
2024/01/12 14:55:37;;;;;;;8.07;5.88;;;;;;;3.77;67.36;101543.88;10384291;28;20057;-64
2024/01/12 15:00:39;;;;;;;5.47;4.95;;;;;;;3.71;67.12;101539.69;10406861;28;20156;-64
2024/01/12 15:05:40;;;;;;;6.25;5.65;;;;;;;3.69;67.11;101533.56;10409134;28;20461;-64
2024/01/12 15:10:45;;;;;;;7.05;6.35;;;;;;;3.64;67.22;101546.03;10405435;28;20049;-64
2024/01/12 15:15:46;;;;;;;6.87;5.80;;;;;;;3.62;67.06;101553.09;10395805;28;20273;-64
2024/01/12 15:20:48;;;;;;;7.85;6.38;;;;;;;3.59;66.91;101564.63;10391290;28;20633;-62
2024/01/12 15:25:53;;;;;;;8.68;5.80;;;;;;;3.47;66.81;101565.84;10404029;28;20053;-64
2024/01/12 15:30:56;;;;;;;8.90;6.53;;;;;;;3.43;67.48;101566.84;10410589;28;20048;-67
2024/01/12 15:35:57;;;;;;;9.70;6.38;;;;;;;3.44;67.29;101567.69;10404138;28;20049;-63
2024/01/12 15:41:02;;;;;;;8.23;7.43;;;;;;;3.34;67.19;101578.50;10411967;28;20698;-63
2024/01/12 15:46:04;;;;;;;8.32;7.28;;;;;;;3.01;67.49;101538.22;10409298;28;20057;-63
2024/01/12 15:51:05;;;;;;;10.45;8.57;;;;;;;3.21;68.12;101573.63;10389842;28;20522;-63
2024/01/12 15:56:07;;;;;;;13.73;9.70;;;;;;;3.20;68.76;101570.16;10394426;28;20064;-60
2024/01/12 16:01:09;;;;;;;10.75;8.95;;;;;;;3.20;68.85;101564.88;10403061;28;21016;-62
2024/01/12 16:06:10;;;;;;;11.60;8.45;;;;;;;3.23;68.82;101569.19;10393984;28;20172;-61
2024/01/12 16:11:19;;;;;;;10.90;9.35;;;;;;;3.24;68.76;101576.19;10411228;28;20190;-62
2024/01/12 16:16:21;;;;;;;13.23;10.00;;;;;;;3.20;68.71;101572.78;10404550;28;20049;-61
2024/01/12 16:21:33;;;;;;;13.35;9.95;;;;;;;3.22;69.15;101570.09;10402279;28;20053;-63
2024/01/12 16:26:38;;;;;;;12.10;9.50;;;;;;;3.30;69.32;101578.63;10406493;28;20663;-61
2024/01/12 16:31:41;;;;;;;12.50;9.98;;;;;;;3.27;69.48;101571.72;10392899;28;20080;-63
2024/01/12 16:36:43;;;;;;;12.88;10.10;;;;;;;3.24;69.27;101571.75;10402676;28;20061;-62
2024/01/12 16:41:45;;;;;;;12.02;8.77;;;;;;;3.29;69.38;101571.66;10403075;28;20667;-63
2024/01/12 16:46:49;;;;;;;17.30;12.20;;;;;;;3.23;69.73;101579.72;10419971;28;20057;-61
2024/01/12 16:51:51;;;;;;;17.50;11.65;;;;;;;3.28;69.50;101580.47;10400875;28;21258;-64
2024/01/12 16:56:53;;;;;;;13.48;10.25;;;;;;;3.30;69.12;101583.91;10402993;28;20578;-62
2024/01/12 17:01:55;;;;;;;11.20;9.15;;;;;;;3.28;69.33;101581.31;10401332;28;20287;-61
2024/01/12 17:07:02;;;;;;;11.45;8.98;;;;;;;3.31;68.97;101575.09;10401819;28;20424;-62
2024/01/12 17:12:04;;;;;;;9.43;7.32;;;;;;;3.30;68.88;101578.63;10394385;28;20044;-62
2024/01/12 17:17:05;;;;;;;8.75;7.57;;;;;;;3.36;69.11;101565.28;10400531;28;20048;-62
2024/01/12 17:22:22;;;;;;;9.07;7.40;;;;;;;3.39;69.11;101570.47;10384186;28;20041;-62
2024/01/12 17:27:24;;;;;;;10.05;7.65;;;;;;;3.42;69.02;101569.50;10391124;28;20113;-62
2024/01/12 17:32:28;;;;;;;9.02;7.82;;;;;;;3.35;68.67;101568.84;10407617;28;20060;-61
2024/01/12 17:37:30;;;;;;;9.90;7.55;;;;;;;3.06;69.22;101546.84;10402157;28;20152;-61
2024/01/12 17:42:33;;;;;;;9.45;7.10;;;;;;;3.15;69.00;101549.22;10399663;28;20080;-62
2024/01/12 17:47:34;;;;;;;8.57;7.68;;;;;;;3.18;69.16;101545.63;10404867;28;20056;-62
2024/01/12 17:52:36;;;;;;;10.05;7.57;;;;;;;3.23;69.26;101542.88;10411529;28;20120;-60
2024/01/12 17:57:38;;;;;;;8.70;7.25;;;;;;;3.17;68.88;101529.00;10382455;28;20049;-62
2024/01/12 18:02:39;;;;;;;8.40;6.65;;;;;;;3.21;69.25;101523.63;10402442;28;20542;-63
2024/01/12 18:07:41;;;;;;;9.65;7.43;;;;;;;3.00;69.58;101518.09;10389295;28;20110;-60
2024/01/12 18:12:43;;;;;;;11.30;8.68;;;;;;;2.96;70.05;101535.72;10401604;28;20140;-61
2024/01/12 18:17:44;;;;;;;11.48;8.60;;;;;;;2.94;70.26;101523.53;10400622;28;20125;-61
2024/01/12 18:22:46;;;;;;;11.10;8.25;;;;;;;2.87;70.77;101516.69;10406100;28;20163;-61
2024/01/12 18:27:47;;;;;;;12.63;9.38;;;;;;;2.90;70.63;101519.25;10403777;28;20050;-61
2024/01/12 18:32:49;;;;;;;10.63;9.05;;;;;;;2.89;71.12;101535.97;10389462;28;20099;-62
2024/01/12 18:37:50;;;;;;;14.80;12.75;;;;;;;2.81;71.61;101534.41;10391594;28;20128;-61
2024/01/12 18:42:52;;;;;;;14.07;11.38;;;;;;;2.74;72.31;101560.91;10380256;28;20714;-61
2024/01/12 18:47:54;;;;;;;16.02;12.27;;;;;;;2.64;72.78;101557.63;10412135;28;20107;-61
2024/01/12 18:52:55;;;;;;;16.83;13.32;;;;;;;2.51;73.57;101550.97;10408102;28;20057;-61
2024/01/12 18:57:57;;;;;;;18.85;14.23;;;;;;;2.58;73.83;101544.66;10404715;28;20048;-60
2024/01/12 19:02:58;;;;;;;15.45;12.90;;;;;;;2.66;73.57;101545.34;10414356;28;20176;-61
2024/01/12 19:08:00;;;;;;;17.85;14.18;;;;;;;2.67;73.42;101540.94;10404284;28;20591;-60
2024/01/12 19:13:04;;;;;;;18.27;14.32;;;;;;;2.46;74.02;101530.97;10388105;28;20045;-60
2024/01/12 19:18:06;;;;;;;19.58;15.63;;;;;;;2.56;74.03;101535.97;10406416;28;20744;-59
2024/01/12 19:23:08;;;;;;;17.33;13.48;;;;;;;2.65;74.29;101527.81;10407265;28;20126;-62
2024/01/12 19:28:09;;;;;;;19.23;15.13;;;;;;;2.77;74.15;101524.84;10413198;28;20083;-59
2024/01/12 19:33:11;;;;;;;21.27;15.50;;;;;;;2.66;74.17;101519.03;10409173;28;20057;-61
2024/01/12 19:38:12;;;;;;;18.60;15.02;;;;;;;2.57;75.19;101522.78;10416341;28;20056;-61
2024/01/12 19:43:14;;;;;;;20.13;14.95;;;;;;;2.54;75.46;101514.09;10406219;28;20560;-61
2024/01/12 19:48:15;;;;;;;19.30;15.00;;;;;;;2.61;75.23;101515.66;10407258;28;20063;-59
2024/01/12 19:53:18;;;;;;;17.58;13.90;;;;;;;2.67;74.99;101520.75;10406108;28;20053;-61
2024/01/12 19:58:20;;;;;;;17.27;13.07;;;;;;;2.65;74.47;101510.28;10410798;28;20051;-60
2024/01/12 20:03:21;;;;;;;19.65;15.05;;;;;;;2.61;74.60;101479.75;10388452;28;20054;-60
2024/01/12 20:08:23;;;;;;;18.95;14.25;;;;;;;2.60;75.43;101512.19;10386937;28;20083;-61
2024/01/12 20:13:24;;;;;;;16.30;12.68;;;;;;;2.47;75.77;101495.00;10391945;28;20568;-60
2024/01/12 20:18:25;;;;;;;17.83;13.35;;;;;;;2.52;75.71;101516.75;10405748;28;21306;-61
2024/01/12 20:23:27;;;;;;;15.98;12.45;;;;;;;2.52;75.62;101503.63;10404333;28;20064;-59
2024/01/12 20:28:29;;;;;;;17.30;14.02;;;;;;;2.46;75.68;101498.53;10401617;28;21326;-60
2024/01/12 20:33:30;;;;;;;15.23;12.65;;;;;;;2.50;76.24;101502.81;10403077;28;20052;-60
2024/01/12 20:38:33;;;;;;;18.05;14.18;;;;;;;2.62;75.96;101499.00;10404358;28;20053;-61
2024/01/12 20:43:35;;;;;;;17.75;12.82;;;;;;;2.61;76.00;101502.50;10406955;28;20728;-61
2024/01/12 20:48:36;;;;;;;16.55;13.10;;;;;;;2.58;76.08;101482.44;10406449;28;20591;-60
2024/01/12 20:53:38;;;;;;;14.82;12.02;;;;;;;2.55;76.41;101473.78;10406710;28;20060;-61
2024/01/12 20:58:40;;;;;;;14.38;11.40;;;;;;;2.65;76.10;101475.25;10402894;28;20045;-62
2024/01/12 21:03:41;;;;;;;16.90;12.95;;;;;;;2.61;75.82;101461.34;10419854;28;20051;-60
2024/01/12 21:08:43;;;;;;;19.42;13.82;;;;;;;2.66;75.78;101479.59;10410199;28;20061;-60
2024/01/12 21:13:44;;;;;;;16.13;13.07;;;;;;;2.61;75.91;101476.22;10404374;28;21611;-60
2024/01/12 21:18:46;;;;;;;16.50;11.82;;;;;;;2.68;75.96;101475.16;10401413;28;20064;-59
2024/01/12 21:23:48;;;;;;;16.13;12.55;;;;;;;2.72;75.75;101479.44;10403528;28;20060;-62
2024/01/12 21:28:49;;;;;;;17.38;13.23;;;;;;;2.61;75.82;101481.47;10388116;28;20589;-60
2024/01/12 21:33:51;;;;;;;19.25;16.02;;;;;;;2.69;75.90;101479.53;10417517;28;20440;-61
2024/01/12 21:38:56;;;;;;;17.33;13.23;;;;;;;2.65;75.49;101470.84;10416737;28;20120;-60
2024/01/12 21:43:58;;;;;;;15.57;13.20;;;;;;;2.73;75.67;101461.88;10404471;28;20110;-62
2024/01/12 21:49:00;;;;;;;17.88;13.60;;;;;;;2.77;74.65;101467.00;10420972;28;20690;-61
2024/01/12 21:54:02;;;;;;;17.80;13.23;;;;;;;2.70;74.86;101470.72;10380363;28;20057;-61
2024/01/12 21:59:03;;;;;;;16.65;12.50;;;;;;;2.74;74.87;101461.84;10388210;28;20743;-60
2024/01/12 22:04:05;;;;;;;16.33;13.02;;;;;;;2.74;74.48;101461.84;10403238;28;20426;-62
2024/01/12 22:09:08;;;;;;;16.98;12.65;;;;;;;2.58;75.79;101450.91;10408181;28;20060;-60
2024/01/12 22:14:10;;;;;;;18.90;12.95;;;;;;;2.69;75.88;101447.97;10416305;28;20041;-59
2024/01/12 22:19:11;;;;;;;16.00;13.35;;;;;;;2.80;75.33;101430.09;10415887;28;20049;-61
2024/01/12 22:24:15;;;;;;;16.95;12.90;;;;;;;2.83;75.22;101430.00;10412187;28;20052;-61
2024/01/12 22:29:17;;;;;;;18.45;13.18;;;;;;;2.86;74.94;101428.22;10403809;28;20053;-60
2024/01/12 22:34:18;;;;;;;16.88;13.15;;;;;;;2.90;74.61;101429.81;10408384;28;20076;-61
2024/01/12 22:39:20;;;;;;;19.95;14.10;;;;;;;2.80;74.52;101427.47;10402326;28;20255;-59
2024/01/12 22:44:24;;;;;;;18.13;14.18;;;;;;;2.78;75.11;101431.91;10409346;28;20049;-59
2024/01/12 22:49:26;;;;;;;17.83;13.23;;;;;;;2.59;75.16;101400.03;10414033;28;20087;-61
2024/01/12 22:54:28;;;;;;;17.65;13.25;;;;;;;2.77;74.88;101424.06;10413268;28;20060;-59
2024/01/12 22:59:29;;;;;;;18.88;15.07;;;;;;;2.67;75.28;101417.34;10410914;28;20061;-58
2024/01/12 23:04:31;;;;;;;19.27;14.80;;;;;;;2.62;75.42;101410.47;10414945;28;20725;-60
2024/01/12 23:09:32;;;;;;;17.98;13.75;;;;;;;2.59;75.37;101404.44;10409529;28;20481;-62
2024/01/12 23:14:34;;;;;;;18.17;14.50;;;;;;;2.53;75.92;101405.47;10396501;28;20063;-60
2024/01/12 23:19:36;;;;;;;21.55;15.13;;;;;;;2.63;75.95;101411.34;10407246;28;20052;-61